sensor_id;sensor_type;location;lat;lon;timestamp;pressure;altitude;pressure_sealevel;temperature;humidity
41636;BME280;27623;51.966;4.602;2023-09-30T00:00:45;64895.38;;;15.31;100.00
41636;BME280;27623;51.966;4.602;2023-09-30T00:03:10;64895.88;;;15.39;100.00
41636;BME280;27623;51.966;4.602;2023-09-30T00:05:36;64915.00;;;15.33;100.00
41636;BME280;27623;51.966;4.602;2023-09-30T00:08:03;64905.53;;;15.15;100.00
41636;BME280;27623;51.966;4.602;2023-09-30T00:10:28;64878.53;;;15.25;100.00
41636;BME280;27623;51.966;4.602;2023-09-30T00:12:55;64875.78;;;15.23;100.00
41636;BME280;27623;51.966;4.602;2023-09-30T00:15:21;64895.41;;;15.24;100.00
41636;BME280;27623;51.966;4.602;2023-09-30T00:17:46;64883.31;;;15.20;100.00
41636;BME280;27623;51.966;4.602;2023-09-30T00:20:11;64891.97;;;15.11;100.00
41636;BME280;27623;51.966;4.602;2023-09-30T00:22:39;64856.38;;;15.17;100.00
41636;BME280;27623;51.966;4.602;2023-09-30T00:25:05;64810.63;;;15.00;100.00
41636;BME280;27623;51.966;4.602;2023-09-30T00:27:31;64903.34;;;15.12;100.00
41636;BME280;27623;51.966;4.602;2023-09-30T00:29:56;64878.72;;;15.21;100.00
41636;BME280;27623;51.966;4.602;2023-09-30T00:32:21;64877.06;;;15.19;100.00
41636;BME280;27623;51.966;4.602;2023-09-30T00:34:47;64904.03;;;15.23;100.00
41636;BME280;27623;51.966;4.602;2023-09-30T00:37:12;64901.50;;;15.16;100.00
41636;BME280;27623;51.966;4.602;2023-09-30T00:39:38;64865.75;;;15.11;100.00
41636;BME280;27623;51.966;4.602;2023-09-30T00:42:04;64903.09;;;15.24;100.00
41636;BME280;27623;51.966;4.602;2023-09-30T00:44:30;64865.84;;;15.28;100.00
41636;BME280;27623;51.966;4.602;2023-09-30T00:46:56;64900.31;;;15.36;100.00
41636;BME280;27623;51.966;4.602;2023-09-30T00:49:23;64898.88;;;15.30;100.00
41636;BME280;27623;51.966;4.602;2023-09-30T00:51:49;64894.09;;;15.28;100.00
41636;BME280;27623;51.966;4.602;2023-09-30T00:54:15;64896.09;;;15.34;100.00
41636;BME280;27623;51.966;4.602;2023-09-30T00:56:46;64867.69;;;15.32;100.00
41636;BME280;27623;51.966;4.602;2023-09-30T00:59:15;64881.97;;;15.31;100.00
41636;BME280;27623;51.966;4.602;2023-09-30T01:01:44;64910.06;;;15.28;100.00
41636;BME280;27623;51.966;4.602;2023-09-30T01:04:11;64893.94;;;15.25;100.00
41636;BME280;27623;51.966;4.602;2023-09-30T01:06:37;64868.88;;;15.11;100.00
41636;BME280;27623;51.966;4.602;2023-09-30T01:09:05;64903.09;;;15.24;100.00
41636;BME280;27623;51.966;4.602;2023-09-30T01:11:30;64886.94;;;15.28;100.00
41636;BME280;27623;51.966;4.602;2023-09-30T01:13:56;64892.47;;;15.26;100.00
41636;BME280;27623;51.966;4.602;2023-09-30T01:16:22;64904.19;;;15.25;100.00
41636;BME280;27623;51.966;4.602;2023-09-30T01:18:51;64887.13;;;15.31;100.00
41636;BME280;27623;51.966;4.602;2023-09-30T01:21:17;64896.16;;;15.20;100.00
41636;BME280;27623;51.966;4.602;2023-09-30T01:23:43;64886.25;;;15.18;100.00
41636;BME280;27623;51.966;4.602;2023-09-30T01:26:12;64897.50;;;15.02;100.00
41636;BME280;27623;51.966;4.602;2023-09-30T01:28:38;64883.91;;;15.13;100.00
41636;BME280;27623;51.966;4.602;2023-09-30T01:31:04;64895.22;;;15.22;100.00
41636;BME280;27623;51.966;4.602;2023-09-30T01:33:30;64884.59;;;15.24;100.00
41636;BME280;27623;51.966;4.602;2023-09-30T01:35:57;64894.09;;;15.28;100.00
41636;BME280;27623;51.966;4.602;2023-09-30T01:38:22;64879.97;;;15.31;100.00
41636;BME280;27623;51.966;4.602;2023-09-30T01:40:48;64895.63;;;15.12;100.00
41636;BME280;27623;51.966;4.602;2023-09-30T01:43:14;64865.78;;;15.04;100.00
41636;BME280;27623;51.966;4.602;2023-09-30T01:45:40;64866.31;;;15.11;100.00
41636;BME280;27623;51.966;4.602;2023-09-30T01:48:06;64876.94;;;15.17;100.00
41636;BME280;27623;51.966;4.602;2023-09-30T01:50:32;64889.91;;;15.19;100.00
41636;BME280;27623;51.966;4.602;2023-09-30T01:52:58;64857.31;;;15.15;100.00
41636;BME280;27623;51.966;4.602;2023-09-30T01:55:23;64897.25;;;15.21;100.00
41636;BME280;27623;51.966;4.602;2023-09-30T01:57:48;64875.41;;;15.25;100.00
41636;BME280;27623;51.966;4.602;2023-09-30T02:00:14;64907.88;;;15.19;100.00
41636;BME280;27623;51.966;4.602;2023-09-30T02:02:39;64880.00;;;15.24;100.00
41636;BME280;27623;51.966;4.602;2023-09-30T02:05:05;64876.38;;;15.16;100.00
41636;BME280;27623;51.966;4.602;2023-09-30T02:07:33;64884.03;;;15.23;100.00
41636;BME280;27623;51.966;4.602;2023-09-30T02:09:59;64840.16;;;14.97;100.00
41636;BME280;27623;51.966;4.602;2023-09-30T02:12:27;64879.72;;;15.05;100.00
41636;BME280;27623;51.966;4.602;2023-09-30T02:14:53;64881.22;;;14.97;100.00
41636;BME280;27623;51.966;4.602;2023-09-30T02:17:19;64869.69;;;14.93;100.00
41636;BME280;27623;51.966;4.602;2023-09-30T02:19:44;64829.69;;;15.01;100.00
41636;BME280;27623;51.966;4.602;2023-09-30T02:22:10;64892.34;;;15.09;100.00
41636;BME280;27623;51.966;4.602;2023-09-30T02:24:38;64893.44;;;15.10;100.00
41636;BME280;27623;51.966;4.602;2023-09-30T02:27:05;64893.28;;;15.08;100.00
41636;BME280;27623;51.966;4.602;2023-09-30T02:29:31;64899.88;;;15.07;100.00
41636;BME280;27623;51.966;4.602;2023-09-30T02:31:56;64872.91;;;15.10;100.00
41636;BME280;27623;51.966;4.602;2023-09-30T02:34:22;64889.97;;;15.12;100.00
41636;BME280;27623;51.966;4.602;2023-09-30T02:36:50;64882.09;;;15.09;100.00
41636;BME280;27623;51.966;4.602;2023-09-30T02:39:15;64860.28;;;15.06;100.00
41636;BME280;27623;51.966;4.602;2023-09-30T02:41:42;64873.28;;;15.08;100.00
41636;BME280;27623;51.966;4.602;2023-09-30T02:44:07;64901.31;;;15.13;100.00
41636;BME280;27623;51.966;4.602;2023-09-30T02:46:33;64900.78;;;15.12;100.00
41636;BME280;27623;51.966;4.602;2023-09-30T02:49:00;64882.09;;;15.09;100.00
41636;BME280;27623;51.966;4.602;2023-09-30T02:51:25;64908.31;;;15.10;100.00
41636;BME280;27623;51.966;4.602;2023-09-30T02:53:51;64891.44;;;15.11;100.00
41636;BME280;27623;51.966;4.602;2023-09-30T02:56:16;64891.44;;;15.04;100.00
41636;BME280;27623;51.966;4.602;2023-09-30T02:58:42;64891.59;;;15.13;100.00
41636;BME280;27623;51.966;4.602;2023-09-30T03:01:08;64886.66;;;15.09;100.00
41636;BME280;27623;51.966;4.602;2023-09-30T03:03:35;64873.72;;;14.92;100.00
41636;BME280;27623;51.966;4.602;2023-09-30T03:06:00;64862.16;;;14.96;100.00
41636;BME280;27623;51.966;4.602;2023-09-30T03:08:26;64855.91;;;15.02;100.00
41636;BME280;27623;51.966;4.602;2023-09-30T03:10:52;64899.88;;;15.07;100.00
41636;BME280;27623;51.966;4.602;2023-09-30T03:13:18;64838.44;;;15.09;100.00
41636;BME280;27623;51.966;4.602;2023-09-30T03:15:44;64861.75;;;15.05;100.00
41636;BME280;27623;51.966;4.602;2023-09-30T03:18:09;64896.56;;;15.11;100.00
41636;BME280;27623;51.966;4.602;2023-09-30T03:20:35;64852.59;;;14.99;100.00
41636;BME280;27623;51.966;4.602;2023-09-30T03:23:05;64846.22;;;14.95;100.00
41636;BME280;27623;51.966;4.602;2023-09-30T03:25:30;64844.72;;;15.03;100.00
41636;BME280;27623;51.966;4.602;2023-09-30T03:27:56;64906.88;;;14.97;100.00
41636;BME280;27623;51.966;4.602;2023-09-30T03:30:22;64831.19;;;14.93;100.00
41636;BME280;27623;51.966;4.602;2023-09-30T03:32:47;64844.72;;;15.03;100.00
41636;BME280;27623;51.966;4.602;2023-09-30T03:35:13;64884.31;;;14.97;100.00
41636;BME280;27623;51.966;4.602;2023-09-30T03:37:45;64854.25;;;15.00;100.00
41636;BME280;27623;51.966;4.602;2023-09-30T03:40:12;64859.59;;;14.96;100.00
41636;BME280;27623;51.966;4.602;2023-09-30T03:42:44;64856.06;;;15.04;100.00
41636;BME280;27623;51.966;4.602;2023-09-30T03:45:10;64896.03;;;15.03;100.00
41636;BME280;27623;51.966;4.602;2023-09-30T03:47:37;64881.38;;;15.06;100.00
41636;BME280;27623;51.966;4.602;2023-09-30T03:50:04;64879.16;;;15.04;100.00
41636;BME280;27623;51.966;4.602;2023-09-30T03:52:31;64865.06;;;15.01;100.00
41636;BME280;27623;51.966;4.602;2023-09-30T03:54:59;64891.81;;;15.09;100.00
41636;BME280;27623;51.966;4.602;2023-09-30T03:57:24;64874.22;;;15.00;100.00
41636;BME280;27623;51.966;4.602;2023-09-30T03:59:50;64886.13;;;15.08;100.00
41636;BME280;27623;51.966;4.602;2023-09-30T04:02:15;64821.47;;;14.94;100.00
41636;BME280;27623;51.966;4.602;2023-09-30T04:04:40;64897.56;;;14.95;100.00
41636;BME280;27623;51.966;4.602;2023-09-30T04:07:06;64832.44;;;14.97;100.00
41636;BME280;27623;51.966;4.602;2023-09-30T04:09:32;64877.41;;;14.93;100.00
41636;BME280;27623;51.966;4.602;2023-09-30T04:11:58;64881.44;;;14.92;100.00
41636;BME280;27623;51.966;4.602;2023-09-30T04:14:23;64860.19;;;14.82;100.00
41636;BME280;27623;51.966;4.602;2023-09-30T04:16:50;64855.22;;;14.92;100.00
41636;BME280;27623;51.966;4.602;2023-09-30T04:19:16;64853.41;;;14.88;100.00
41636;BME280;27623;51.966;4.602;2023-09-30T04:21:41;64867.84;;;14.96;100.00
41636;BME280;27623;51.966;4.602;2023-09-30T04:24:07;64869.34;;;14.88;100.00
41636;BME280;27623;51.966;4.602;2023-09-30T04:26:32;64856.13;;;14.90;100.00
41636;BME280;27623;51.966;4.602;2023-09-30T04:28:58;64884.56;;;14.86;100.00
41636;BME280;27623;51.966;4.602;2023-09-30T04:31:23;64910.56;;;14.91;100.00
41636;BME280;27623;51.966;4.602;2023-09-30T04:33:49;64849.00;;;14.91;100.00
41636;BME280;27623;51.966;4.602;2023-09-30T04:36:19;64856.16;;;14.83;100.00
41636;BME280;27623;51.966;4.602;2023-09-30T04:38:45;64870.09;;;14.84;100.00
41636;BME280;27623;51.966;4.602;2023-09-30T04:41:10;64880.50;;;14.94;100.00
41636;BME280;27623;51.966;4.602;2023-09-30T04:43:35;64849.00;;;14.91;100.00
41636;BME280;27623;51.966;4.602;2023-09-30T04:46:04;64853.22;;;14.85;100.00
41636;BME280;27623;51.966;4.602;2023-09-30T04:48:30;64866.59;;;14.86;100.00
41636;BME280;27623;51.966;4.602;2023-09-30T04:50:57;64860.41;;;14.77;100.00
41636;BME280;27623;51.966;4.602;2023-09-30T04:53:24;64843.88;;;14.84;100.00
41636;BME280;27623;51.966;4.602;2023-09-30T04:55:50;64869.91;;;14.82;100.00
41636;BME280;27623;51.966;4.602;2023-09-30T04:58:16;64872.84;;;14.79;100.00
41636;BME280;27623;51.966;4.602;2023-09-30T05:00:41;64856.72;;;14.84;100.00
41636;BME280;27623;51.966;4.602;2023-09-30T05:03:07;64803.44;;;14.70;100.00
41636;BME280;27623;51.966;4.602;2023-09-30T05:05:32;64821.97;;;14.70;100.00
41636;BME280;27623;51.966;4.602;2023-09-30T05:07:59;64836.75;;;14.77;100.00
41636;BME280;27623;51.966;4.602;2023-09-30T05:10:25;64855.81;;;14.78;100.00
41636;BME280;27623;51.966;4.602;2023-09-30T05:12:50;64862.38;;;14.84;100.00
41636;BME280;27623;51.966;4.602;2023-09-30T05:15:19;64891.53;;;14.83;100.00
41636;BME280;27623;51.966;4.602;2023-09-30T05:17:46;64878.72;;;14.83;100.00
41636;BME280;27623;51.966;4.602;2023-09-30T05:20:12;64832.69;;;14.85;100.00
41636;BME280;27623;51.966;4.602;2023-09-30T05:22:39;64858.72;;;14.83;100.00
41636;BME280;27623;51.966;4.602;2023-09-30T05:25:11;64845.56;;;14.78;100.00
41636;BME280;27623;51.966;4.602;2023-09-30T05:27:39;64834.81;;;14.56;100.00
41636;BME280;27623;51.966;4.602;2023-09-30T05:30:05;64799.50;;;14.50;100.00
41636;BME280;27623;51.966;4.602;2023-09-30T05:32:32;64842.13;;;14.65;100.00
41636;BME280;27623;51.966;4.602;2023-09-30T05:34:57;64812.25;;;14.71;100.00
41636;BME280;27623;51.966;4.602;2023-09-30T05:37:23;64854.22;;;14.69;100.00
41636;BME280;27623;51.966;4.602;2023-09-30T05:39:49;64867.16;;;14.79;100.00
41636;BME280;27623;51.966;4.602;2023-09-30T05:42:17;64868.28;;;14.80;100.00
41636;BME280;27623;51.966;4.602;2023-09-30T05:44:44;64864.81;;;14.74;100.00
41636;BME280;27623;51.966;4.602;2023-09-30T05:47:10;64861.72;;;14.74;100.00
41636;BME280;27623;51.966;4.602;2023-09-30T05:49:37;64847.81;;;14.59;100.00
41636;BME280;27623;51.966;4.602;2023-09-30T05:52:03;64850.38;;;14.66;100.00
41636;BME280;27623;51.966;4.602;2023-09-30T05:54:30;64845.06;;;14.63;100.00
41636;BME280;27623;51.966;4.602;2023-09-30T05:56:55;64855.88;;;14.64;100.00
41636;BME280;27623;51.966;4.602;2023-09-30T05:59:21;64874.00;;;14.66;100.00
41636;BME280;27623;51.966;4.602;2023-09-30T06:01:47;64833.88;;;14.72;100.00
41636;BME280;27623;51.966;4.602;2023-09-30T06:04:12;64868.63;;;14.78;100.00
41636;BME280;27623;51.966;4.602;2023-09-30T06:06:37;64839.22;;;14.60;100.00
41636;BME280;27623;51.966;4.602;2023-09-30T06:09:04;64862.44;;;14.70;100.00
41636;BME280;27623;51.966;4.602;2023-09-30T06:11:33;64847.44;;;14.68;100.00
41636;BME280;27623;51.966;4.602;2023-09-30T06:13:59;64817.28;;;14.54;100.00
41636;BME280;27623;51.966;4.602;2023-09-30T06:16:26;64857.69;;;14.68;100.00
41636;BME280;27623;51.966;4.602;2023-09-30T06:18:52;64832.78;;;14.71;100.00
41636;BME280;27623;51.966;4.602;2023-09-30T06:21:18;64851.13;;;14.62;100.00
41636;BME280;27623;51.966;4.602;2023-09-30T06:23:47;64855.69;;;14.61;100.00
41636;BME280;27623;51.966;4.602;2023-09-30T06:26:14;64834.09;;;14.60;100.00
41636;BME280;27623;51.966;4.602;2023-09-30T06:28:40;64832.03;;;14.68;100.00
41636;BME280;27623;51.966;4.602;2023-09-30T06:31:08;64826.75;;;14.58;100.00
41636;BME280;27623;51.966;4.602;2023-09-30T06:33:38;64864.28;;;14.67;100.00
41636;BME280;27623;51.966;4.602;2023-09-30T06:36:12;64828.94;;;14.67;100.00
41636;BME280;27623;51.966;4.602;2023-09-30T06:38:42;64844.00;;;14.55;100.00
41636;BME280;27623;51.966;4.602;2023-09-30T06:41:08;64812.34;;;14.42;100.00
41636;BME280;27623;51.966;4.602;2023-09-30T06:43:36;64805.75;;;14.43;100.00
41636;BME280;27623;51.966;4.602;2023-09-30T06:46:08;64818.16;;;14.60;100.00
41636;BME280;27623;51.966;4.602;2023-09-30T06:48:37;64851.38;;;14.43;100.00
41636;BME280;27623;51.966;4.602;2023-09-30T06:51:02;64846.97;;;14.46;100.00
41636;BME280;27623;51.966;4.602;2023-09-30T06:53:28;64836.34;;;14.41;100.00
41636;BME280;27623;51.966;4.602;2023-09-30T06:55:53;64801.00;;;14.34;100.00
41636;BME280;27623;51.966;4.602;2023-09-30T06:58:19;64817.28;;;14.40;100.00
41636;BME280;27623;51.966;4.602;2023-09-30T07:00:51;64804.91;;;14.24;100.00
41636;BME280;27623;51.966;4.602;2023-09-30T07:03:17;64857.41;;;14.41;100.00
41636;BME280;27623;51.966;4.602;2023-09-30T07:05:44;64810.75;;;14.27;100.00
41636;BME280;27623;51.966;4.602;2023-09-30T07:08:10;64831.78;;;14.41;100.00
41636;BME280;27623;51.966;4.602;2023-09-30T07:10:35;64811.63;;;14.39;100.00
41636;BME280;27623;51.966;4.602;2023-09-30T07:13:04;64854.84;;;14.49;100.00
41636;BME280;27623;51.966;4.602;2023-09-30T07:15:32;64836.69;;;14.53;100.00
41636;BME280;27623;51.966;4.602;2023-09-30T07:17:57;64859.34;;;14.62;100.00
41636;BME280;27623;51.966;4.602;2023-09-30T07:20:23;64862.53;;;14.49;100.00
41636;BME280;27623;51.966;4.602;2023-09-30T07:22:48;64869.25;;;14.57;100.00
41636;BME280;27623;51.966;4.602;2023-09-30T07:25:14;64822.03;;;14.49;100.00
41636;BME280;27623;51.966;4.602;2023-09-30T07:27:44;64857.34;;;14.63;100.00
41636;BME280;27623;51.966;4.602;2023-09-30T07:30:11;64860.09;;;14.65;100.00
41636;BME280;27623;51.966;4.602;2023-09-30T07:32:37;64832.59;;;14.68;100.00
41636;BME280;27623;51.966;4.602;2023-09-30T07:35:03;64845.59;;;14.71;100.00
41636;BME280;27623;51.966;4.602;2023-09-30T07:37:28;64867.00;;;14.76;100.00
41636;BME280;27623;51.966;4.602;2023-09-30T07:39:54;64862.81;;;14.68;100.00
41636;BME280;27623;51.966;4.602;2023-09-30T07:42:19;64850.91;;;14.73;100.00
41636;BME280;27623;51.966;4.602;2023-09-30T07:44:45;64875.09;;;14.74;100.00
41636;BME280;27623;51.966;4.602;2023-09-30T07:47:10;64930.19;;;14.85;100.00
41636;BME280;27623;51.966;4.602;2023-09-30T07:49:37;64858.59;;;14.73;100.00
41636;BME280;27623;51.966;4.602;2023-09-30T07:52:03;64893.19;;;14.84;100.00
41636;BME280;27623;51.966;4.602;2023-09-30T07:54:29;64880.16;;;14.89;100.00
41636;BME280;27623;51.966;4.602;2023-09-30T07:56:54;64869.72;;;14.79;100.00
41636;BME280;27623;51.966;4.602;2023-09-30T07:59:20;64868.44;;;14.83;100.00
41636;BME280;27623;51.966;4.602;2023-09-30T08:01:47;64886.41;;;14.83;100.00
41636;BME280;27623;51.966;4.602;2023-09-30T08:04:13;64886.56;;;14.92;100.00
41636;BME280;27623;51.966;4.602;2023-09-30T08:06:38;64867.13;;;14.93;100.00
41636;BME280;27623;51.966;4.602;2023-09-30T08:09:04;64897.34;;;15.00;100.00
41636;BME280;27623;51.966;4.602;2023-09-30T08:11:35;64904.63;;;15.09;100.00
41636;BME280;27623;51.966;4.602;2023-09-30T08:14:03;64934.66;;;15.20;100.00
41636;BME280;27623;51.966;4.602;2023-09-30T08:16:34;64909.91;;;15.19;100.00
41636;BME280;27623;51.966;4.602;2023-09-30T08:18:59;64938.16;;;15.19;100.00
41636;BME280;27623;51.966;4.602;2023-09-30T08:21:25;64922.69;;;15.33;100.00
41636;BME280;27623;51.966;4.602;2023-09-30T08:23:50;64958.75;;;15.50;100.00
41636;BME280;27623;51.966;4.602;2023-09-30T08:26:15;64966.09;;;15.59;100.00
41636;BME280;27623;51.966;4.602;2023-09-30T08:28:41;64988.06;;;15.65;100.00
41636;BME280;27623;51.966;4.602;2023-09-30T08:31:06;65004.19;;;15.75;100.00
41636;BME280;27623;51.966;4.602;2023-09-30T08:33:32;65003.25;;;15.76;100.00
41636;BME280;27623;51.966;4.602;2023-09-30T08:36:04;65032.03;;;15.91;100.00
41636;BME280;27623;51.966;4.602;2023-09-30T08:38:38;65017.50;;;15.97;100.00
41636;BME280;27623;51.966;4.602;2023-09-30T08:41:04;65022.97;;;16.02;100.00
41636;BME280;27623;51.966;4.602;2023-09-30T08:43:30;65039.81;;;16.15;100.00
41636;BME280;27623;51.966;4.602;2023-09-30T08:46:02;65055.25;;;16.15;100.00
41636;BME280;27623;51.966;4.602;2023-09-30T08:48:31;65066.75;;;16.26;100.00
41636;BME280;27623;51.966;4.602;2023-09-30T08:50:58;65084.38;;;16.35;100.00
41636;BME280;27623;51.966;4.602;2023-09-30T08:53:25;65054.94;;;16.41;100.00
41636;BME280;27623;51.966;4.602;2023-09-30T08:55:53;65081.16;;;16.48;100.00
41636;BME280;27623;51.966;4.602;2023-09-30T08:58:19;65074.16;;;16.59;100.00
41636;BME280;27623;51.966;4.602;2023-09-30T09:00:46;65099.47;;;16.68;100.00
41636;BME280;27623;51.966;4.602;2023-09-30T09:03:12;65107.50;;;16.80;100.00
41636;BME280;27623;51.966;4.602;2023-09-30T09:05:38;65111.50;;;16.86;100.00
41636;BME280;27623;51.966;4.602;2023-09-30T09:08:03;65133.91;;;16.97;100.00
41636;BME280;27623;51.966;4.602;2023-09-30T09:10:29;65150.25;;;17.03;100.00
41636;BME280;27623;51.966;4.602;2023-09-30T09:12:56;65154.03;;;17.13;100.00
41636;BME280;27623;51.966;4.602;2023-09-30T09:15:26;65165.25;;;17.19;100.00
41636;BME280;27623;51.966;4.602;2023-09-30T09:17:52;65195.34;;;17.30;100.00
41636;BME280;27623;51.966;4.602;2023-09-30T09:20:19;65188.34;;;17.33;100.00
41636;BME280;27623;51.966;4.602;2023-09-30T09:22:49;65180.38;;;17.45;100.00
41636;BME280;27623;51.966;4.602;2023-09-30T09:25:18;65201.88;;;17.50;100.00
41636;BME280;27623;51.966;4.602;2023-09-30T09:27:43;65221.66;;;17.69;100.00
41636;BME280;27623;51.966;4.602;2023-09-30T09:30:23;65244.25;;;17.82;100.00
41636;BME280;27623;51.966;4.602;2023-09-30T09:33:05;65280.81;;;17.97;100.00
41636;BME280;27623;51.966;4.602;2023-09-30T09:35:32;65270.47;;;18.04;100.00
41636;BME280;27623;51.966;4.602;2023-09-30T09:40:28;65264.47;;;18.23;100.00
41636;BME280;27623;51.966;4.602;2023-09-30T09:42:54;65339.94;;;18.40;100.00
41636;BME280;27623;51.966;4.602;2023-09-30T09:45:22;65313.78;;;18.35;97.98
41636;BME280;27623;51.966;4.602;2023-09-30T09:47:51;65354.22;;;18.53;99.15
41636;BME280;27623;51.966;4.602;2023-09-30T09:50:21;65321.19;;;18.61;99.97
41636;BME280;27623;51.966;4.602;2023-09-30T09:52:51;65347.94;;;18.59;99.26
41636;BME280;27623;51.966;4.602;2023-09-30T09:55:19;65363.16;;;18.78;100.00
41636;BME280;27623;51.966;4.602;2023-09-30T09:57:45;65394.38;;;18.97;100.00
41636;BME280;27623;51.966;4.602;2023-09-30T10:00:13;65383.13;;;18.99;96.74
41636;BME280;27623;51.966;4.602;2023-09-30T10:02:40;65408.16;;;19.10;95.25
41636;BME280;27623;51.966;4.602;2023-09-30T10:05:07;65433.22;;;19.14;90.88
41636;BME280;27623;51.966;4.602;2023-09-30T10:07:36;65438.72;;;19.19;90.84
41636;BME280;27623;51.966;4.602;2023-09-30T10:10:05;65445.31;;;19.32;88.83
41636;BME280;27623;51.966;4.602;2023-09-30T10:12:36;65472.13;;;19.54;88.54
41636;BME280;27623;51.966;4.602;2023-09-30T10:18:08;65444.81;;;19.48;83.85
41636;BME280;27623;51.966;4.602;2023-09-30T10:20:36;65423.91;;;19.29;85.92
41636;BME280;27623;51.966;4.602;2023-09-30T10:25:45;65373.63;;;19.11;86.93
41636;BME280;27623;51.966;4.602;2023-09-30T10:28:37;65425.38;;;19.28;86.37
41636;BME280;27623;51.966;4.602;2023-09-30T10:31:20;65477.00;;;19.42;83.31
41636;BME280;27623;51.966;4.602;2023-09-30T10:36:40;65397.59;;;19.14;83.83
41636;BME280;27623;51.966;4.602;2023-09-30T10:39:11;65429.75;;;19.08;86.31
41636;BME280;27623;51.966;4.602;2023-09-30T10:46:48;65371.06;;;18.80;84.81
41636;BME280;27623;51.966;4.602;2023-09-30T10:49:15;65405.34;;;18.83;86.11
41636;BME280;27623;51.966;4.602;2023-09-30T10:51:42;65426.59;;;18.77;83.90
41636;BME280;27623;51.966;4.602;2023-09-30T10:54:09;65351.38;;;18.72;84.66
41636;BME280;27623;51.966;4.602;2023-09-30T10:56:35;65346.00;;;18.76;85.65
41636;BME280;27623;51.966;4.602;2023-09-30T10:59:00;65419.84;;;18.99;84.27
41636;BME280;27623;51.966;4.602;2023-09-30T11:01:32;65453.91;;;19.45;71.13
41636;BME280;27623;51.966;4.602;2023-09-30T11:04:01;65505.91;;;19.88;74.14
41636;BME280;27623;51.966;4.602;2023-09-30T11:06:31;65531.31;;;20.28;73.03
41636;BME280;27623;51.966;4.602;2023-09-30T11:09:00;65581.84;;;20.55;71.55
41636;BME280;27623;51.966;4.602;2023-09-30T11:11:42;65579.44;;;20.51;67.94
41636;BME280;27623;51.966;4.602;2023-09-30T11:14:25;65636.72;;;20.63;67.65
41636;BME280;27623;51.966;4.602;2023-09-30T11:16:52;65613.56;;;20.66;69.24
41636;BME280;27623;51.966;4.602;2023-09-30T11:19:19;65619.09;;;20.40;68.96
41636;BME280;27623;51.966;4.602;2023-09-30T11:21:49;65595.72;;;20.54;68.51
41636;BME280;27623;51.966;4.602;2023-09-30T11:24:15;65592.03;;;20.53;63.56
41636;BME280;27623;51.966;4.602;2023-09-30T11:26:41;65612.03;;;20.74;62.21
41636;BME280;27623;51.966;4.602;2023-09-30T11:29:09;65643.53;;;20.96;61.33
41636;BME280;27623;51.966;4.602;2023-09-30T11:31:48;65668.72;;;20.92;63.59
41636;BME280;27623;51.966;4.602;2023-09-30T11:34:17;65691.13;;;21.18;64.04
41636;BME280;27623;51.966;4.602;2023-09-30T11:36:52;65596.59;;;20.59;64.86
41636;BME280;27623;51.966;4.602;2023-09-30T11:39:28;65573.81;;;20.36;62.12
41636;BME280;27623;51.966;4.602;2023-09-30T11:41:57;65545.19;;;20.57;61.10
41636;BME280;27623;51.966;4.602;2023-09-30T11:44:24;65635.56;;;20.69;61.71
41636;BME280;27623;51.966;4.602;2023-09-30T11:46:55;65639.50;;;20.89;60.13
41636;BME280;27623;51.966;4.602;2023-09-30T11:51:50;65634.03;;;21.01;59.07
41636;BME280;27623;51.966;4.602;2023-09-30T11:54:16;65687.34;;;21.31;61.03
41636;BME280;27623;51.966;4.602;2023-09-30T11:56:41;65684.38;;;21.33;60.18
41636;BME280;27623;51.966;4.602;2023-09-30T11:59:07;65665.72;;;21.25;59.64
41636;BME280;27623;51.966;4.602;2023-09-30T12:01:38;65736.03;;;21.61;59.64
41636;BME280;27623;51.966;4.602;2023-09-30T12:04:04;65712.53;;;21.59;58.65
41636;BME280;27623;51.966;4.602;2023-09-30T12:06:30;65711.13;;;21.70;56.60
41636;BME280;27623;51.966;4.602;2023-09-30T12:08:56;65747.56;;;21.79;57.24
41636;BME280;27623;51.966;4.602;2023-09-30T12:11:22;65768.28;;;21.86;56.35
41636;BME280;27623;51.966;4.602;2023-09-30T12:13:49;65731.88;;;21.70;57.41
41636;BME280;27623;51.966;4.602;2023-09-30T12:16:16;65670.91;;;21.25;59.83
41636;BME280;27623;51.966;4.602;2023-09-30T12:18:41;65749.84;;;21.74;63.03
41636;BME280;27623;51.966;4.602;2023-09-30T12:21:10;65752.22;;;21.79;61.72
41636;BME280;27623;51.966;4.602;2023-09-30T12:23:36;65697.44;;;21.43;58.32
41636;BME280;27623;51.966;4.602;2023-09-30T12:26:02;65634.09;;;20.94;61.60
41636;BME280;27623;51.966;4.602;2023-09-30T12:28:33;65648.03;;;21.09;62.62
41636;BME280;27623;51.966;4.602;2023-09-30T12:31:01;65599.47;;;20.96;60.28
41636;BME280;27623;51.966;4.602;2023-09-30T12:33:27;65666.47;;;21.21;61.07
41636;BME280;27623;51.966;4.602;2023-09-30T12:35:53;65629.09;;;20.97;60.13
41636;BME280;27623;51.966;4.602;2023-09-30T12:38:18;65613.25;;;20.84;62.75
41636;BME280;27623;51.966;4.602;2023-09-30T12:40:44;65637.72;;;21.02;61.66
41636;BME280;27623;51.966;4.602;2023-09-30T12:43:09;65657.31;;;21.08;61.52
41636;BME280;27623;51.966;4.602;2023-09-30T12:45:35;65626.81;;;21.02;62.62
41636;BME280;27623;51.966;4.602;2023-09-30T12:48:05;65517.00;;;20.39;61.83
41636;BME280;27623;51.966;4.602;2023-09-30T12:50:31;65564.72;;;20.40;64.15
41636;BME280;27623;51.966;4.602;2023-09-30T12:52:57;65537.56;;;20.36;64.97
41636;BME280;27623;51.966;4.602;2023-09-30T12:55:25;65554.09;;;20.51;65.11
41636;BME280;27623;51.966;4.602;2023-09-30T12:57:52;65573.28;;;20.59;64.89
41636;BME280;27623;51.966;4.602;2023-09-30T13:00:20;65575.44;;;20.69;64.82
41636;BME280;27623;51.966;4.602;2023-09-30T13:02:47;65603.25;;;20.82;62.64
41636;BME280;27623;51.966;4.602;2023-09-30T13:05:13;65632.06;;;20.95;63.37
41636;BME280;27623;51.966;4.602;2023-09-30T13:07:39;65604.69;;;20.88;62.49
41636;BME280;27623;51.966;4.602;2023-09-30T13:10:05;65649.06;;;21.24;62.37